Pagina principale
METAR-TAF:

METAR-TAF

Aeroporti :

Aeroporto militare

Meppen, Germania

latitudine: 52-43-24N, longitudine: 007-19-35E, altezza: 21 m

Osservazione

Il bollettino è stato emesso 1 ora e 13 minuti fa, alle 09:20 UTC
Vento 15 kt da ovest/sud-ovest
Temperature 14°C
Umidità 67%
Pressione 1003 hPa

METAR: ETWM 070920Z AUTO 24015KT //// // ////// 14/08 Q1003 ///

Ora: 12:33 (10:33 UTC)


TAF: mancante

Osservazioni e previsioni meteorologiche di più di 4000 aeroporti (messaggi METAR e TAF).

Le stazioni disponibili sono rappresentate dai dischi gialli e rossi sulla carta.

Puntare il mouse per vedere il nome della stazione.

Clicca sopra per visualizzare le osservazioni e previsioni meteorologiche.

Per cambiare la mappa : fare clic sui pulsanti verdi con una croce nera per ingrandire, il pulsante verde con un trattino per diminuire, o sulla freccia verde per le mappe adiacenti.


METAR-TAF: